sensor_id;sensor_type;location;lat;lon;timestamp;P1;durP1;ratioP1;P2;durP2;ratioP2
72573;SDS011;60603;52.548;13.420;2023-09-08T00:00:20;11.68;;;6.28;;
72573;SDS011;60603;52.548;13.420;2023-09-08T00:03:06;11.30;;;5.88;;
72573;SDS011;60603;52.548;13.420;2023-09-08T00:05:34;11.65;;;6.50;;
72573;SDS011;60603;52.548;13.420;2023-09-08T00:08:01;10.20;;;5.80;;
72573;SDS011;60603;52.548;13.420;2023-09-08T00:10:28;9.70;;;6.25;;
72573;SDS011;60603;52.548;13.420;2023-09-08T00:12:54;9.85;;;6.03;;
72573;SDS011;60603;52.548;13.420;2023-09-08T00:15:21;10.82;;;6.20;;
72573;SDS011;60603;52.548;13.420;2023-09-08T00:17:48;11.25;;;6.75;;
72573;SDS011;60603;52.548;13.420;2023-09-08T00:20:15;11.25;;;6.50;;
72573;SDS011;60603;52.548;13.420;2023-09-08T00:22:42;10.38;;;6.70;;
72573;SDS011;60603;52.548;13.420;2023-09-08T00:25:09;11.63;;;7.28;;
72573;SDS011;60603;52.548;13.420;2023-09-08T00:27:35;9.02;;;6.25;;
72573;SDS011;60603;52.548;13.420;2023-09-08T00:30:03;10.00;;;6.65;;
72573;SDS011;60603;52.548;13.420;2023-09-08T00:32:30;10.68;;;7.07;;
72573;SDS011;60603;52.548;13.420;2023-09-08T00:34:57;10.02;;;6.90;;
72573;SDS011;60603;52.548;13.420;2023-09-08T00:37:24;10.30;;;6.75;;
72573;SDS011;60603;52.548;13.420;2023-09-08T00:39:50;12.30;;;6.97;;
72573;SDS011;60603;52.548;13.420;2023-09-08T00:42:17;11.68;;;6.97;;
72573;SDS011;60603;52.548;13.420;2023-09-08T00:44:44;11.38;;;6.72;;
72573;SDS011;60603;52.548;13.420;2023-09-08T00:47:11;11.80;;;6.88;;
72573;SDS011;60603;52.548;13.420;2023-09-08T00:49:38;13.57;;;6.72;;
72573;SDS011;60603;52.548;13.420;2023-09-08T00:52:05;11.90;;;7.53;;
72573;SDS011;60603;52.548;13.420;2023-09-08T00:54:32;11.02;;;7.57;;
72573;SDS011;60603;52.548;13.420;2023-09-08T00:56:59;13.30;;;7.38;;
72573;SDS011;60603;52.548;13.420;2023-09-08T00:59:29;10.68;;;6.65;;
72573;SDS011;60603;52.548;13.420;2023-09-08T01:01:58;12.27;;;7.22;;
72573;SDS011;60603;52.548;13.420;2023-09-08T01:04:25;11.10;;;6.97;;
72573;SDS011;60603;52.548;13.420;2023-09-08T01:06:52;13.60;;;7.50;;
72573;SDS011;60603;52.548;13.420;2023-09-08T01:09:19;10.98;;;6.85;;
72573;SDS011;60603;52.548;13.420;2023-09-08T01:11:46;11.32;;;6.70;;
72573;SDS011;60603;52.548;13.420;2023-09-08T01:14:14;9.82;;;6.65;;
72573;SDS011;60603;52.548;13.420;2023-09-08T01:16:44;10.35;;;6.60;;
72573;SDS011;60603;52.548;13.420;2023-09-08T01:19:13;13.65;;;7.70;;
72573;SDS011;60603;52.548;13.420;2023-09-08T01:27:17;11.50;;;7.50;;
72573;SDS011;60603;52.548;13.420;2023-09-08T01:29:45;12.88;;;8.30;;
72573;SDS011;60603;52.548;13.420;2023-09-08T01:32:13;12.15;;;7.18;;
72573;SDS011;60603;52.548;13.420;2023-09-08T01:34:40;12.38;;;6.50;;
72573;SDS011;60603;52.548;13.420;2023-09-08T01:37:07;10.73;;;6.50;;
72573;SDS011;60603;52.548;13.420;2023-09-08T01:39:34;11.90;;;7.13;;
72573;SDS011;60603;52.548;13.420;2023-09-08T01:42:02;9.77;;;6.30;;
72573;SDS011;60603;52.548;13.420;2023-09-08T01:44:29;11.25;;;7.25;;
72573;SDS011;60603;52.548;13.420;2023-09-08T01:46:56;12.32;;;7.78;;
72573;SDS011;60603;52.548;13.420;2023-09-08T01:49:24;10.90;;;7.68;;
72573;SDS011;60603;52.548;13.420;2023-09-08T01:51:51;11.82;;;7.20;;
72573;SDS011;60603;52.548;13.420;2023-09-08T01:54:18;11.18;;;7.18;;
72573;SDS011;60603;52.548;13.420;2023-09-08T01:56:45;12.65;;;7.82;;
72573;SDS011;60603;52.548;13.420;2023-09-08T01:59:12;11.38;;;6.93;;
72573;SDS011;60603;52.548;13.420;2023-09-08T02:01:39;10.38;;;7.15;;
72573;SDS011;60603;52.548;13.420;2023-09-08T02:04:06;9.90;;;6.50;;
72573;SDS011;60603;52.548;13.420;2023-09-08T02:06:33;9.77;;;7.50;;
72573;SDS011;60603;52.548;13.420;2023-09-08T02:09:00;11.40;;;7.05;;
72573;SDS011;60603;52.548;13.420;2023-09-08T02:11:27;13.60;;;7.45;;
72573;SDS011;60603;52.548;13.420;2023-09-08T02:13:54;14.77;;;8.00;;
72573;SDS011;60603;52.548;13.420;2023-09-08T02:18:50;11.10;;;7.25;;
72573;SDS011;60603;52.548;13.420;2023-09-08T02:21:17;11.63;;;7.28;;
72573;SDS011;60603;52.548;13.420;2023-09-08T02:23:44;9.68;;;6.78;;
72573;SDS011;60603;52.548;13.420;2023-09-08T02:26:11;11.75;;;7.05;;
72573;SDS011;60603;52.548;13.420;2023-09-08T02:28:37;10.60;;;7.82;;
72573;SDS011;60603;52.548;13.420;2023-09-08T02:31:04;13.88;;;8.20;;
72573;SDS011;60603;52.548;13.420;2023-09-08T02:33:31;11.02;;;7.50;;
72573;SDS011;60603;52.548;13.420;2023-09-08T02:36:04;12.85;;;7.00;;
72573;SDS011;60603;52.548;13.420;2023-09-08T02:38:32;12.60;;;7.85;;
72573;SDS011;60603;52.548;13.420;2023-09-08T02:41:00;9.77;;;7.05;;
72573;SDS011;60603;52.548;13.420;2023-09-08T02:43:27;11.65;;;7.90;;
72573;SDS011;60603;52.548;13.420;2023-09-08T02:45:54;12.27;;;6.70;;
72573;SDS011;60603;52.548;13.420;2023-09-08T02:48:21;11.73;;;7.10;;
72573;SDS011;60603;52.548;13.420;2023-09-08T02:50:48;13.13;;;7.50;;
72573;SDS011;60603;52.548;13.420;2023-09-08T02:53:15;11.55;;;7.18;;
72573;SDS011;60603;52.548;13.420;2023-09-08T02:55:42;12.10;;;7.75;;
72573;SDS011;60603;52.548;13.420;2023-09-08T02:58:09;12.52;;;6.85;;
72573;SDS011;60603;52.548;13.420;2023-09-08T03:00:36;10.68;;;7.60;;
72573;SDS011;60603;52.548;13.420;2023-09-08T03:03:03;13.93;;;7.38;;
72573;SDS011;60603;52.548;13.420;2023-09-08T03:05:31;10.18;;;7.28;;
72573;SDS011;60603;52.548;13.420;2023-09-08T03:07:58;12.07;;;7.15;;
72573;SDS011;60603;52.548;13.420;2023-09-08T03:10:25;13.13;;;7.53;;
72573;SDS011;60603;52.548;13.420;2023-09-08T03:12:52;12.38;;;7.45;;
72573;SDS011;60603;52.548;13.420;2023-09-08T03:15:18;13.48;;;7.45;;
72573;SDS011;60603;52.548;13.420;2023-09-08T03:17:45;11.90;;;6.82;;
72573;SDS011;60603;52.548;13.420;2023-09-08T03:20:12;12.65;;;7.40;;
72573;SDS011;60603;52.548;13.420;2023-09-08T03:22:40;12.10;;;8.13;;
72573;SDS011;60603;52.548;13.420;2023-09-08T03:25:06;12.25;;;6.80;;
72573;SDS011;60603;52.548;13.420;2023-09-08T03:27:34;13.48;;;7.30;;
72573;SDS011;60603;52.548;13.420;2023-09-08T03:30:01;11.15;;;6.78;;
72573;SDS011;60603;52.548;13.420;2023-09-08T03:32:27;11.60;;;6.97;;
72573;SDS011;60603;52.548;13.420;2023-09-08T03:34:55;11.30;;;6.85;;
72573;SDS011;60603;52.548;13.420;2023-09-08T03:37:22;9.95;;;6.82;;
72573;SDS011;60603;52.548;13.420;2023-09-08T03:39:49;11.27;;;7.65;;
72573;SDS011;60603;52.548;13.420;2023-09-08T03:42:16;11.15;;;7.13;;
72573;SDS011;60603;52.548;13.420;2023-09-08T03:44:42;12.00;;;7.75;;
72573;SDS011;60603;52.548;13.420;2023-09-08T03:47:09;12.95;;;7.80;;
72573;SDS011;60603;52.548;13.420;2023-09-08T03:49:36;11.00;;;6.95;;
72573;SDS011;60603;52.548;13.420;2023-09-08T03:52:03;11.68;;;8.07;;
72573;SDS011;60603;52.548;13.420;2023-09-08T03:54:30;11.77;;;8.35;;
72573;SDS011;60603;52.548;13.420;2023-09-08T03:56:57;11.07;;;7.35;;
72573;SDS011;60603;52.548;13.420;2023-09-08T03:59:23;13.18;;;7.70;;
72573;SDS011;60603;52.548;13.420;2023-09-08T04:01:50;12.77;;;7.40;;
72573;SDS011;60603;52.548;13.420;2023-09-08T04:04:17;12.65;;;7.70;;
72573;SDS011;60603;52.548;13.420;2023-09-08T04:06:46;11.27;;;8.13;;
72573;SDS011;60603;52.548;13.420;2023-09-08T04:09:13;16.75;;;7.20;;
72573;SDS011;60603;52.548;13.420;2023-09-08T04:11:40;15.00;;;8.15;;
72573;SDS011;60603;52.548;13.420;2023-09-08T04:14:07;10.88;;;7.97;;
72573;SDS011;60603;52.548;13.420;2023-09-08T04:16:34;14.52;;;7.70;;
72573;SDS011;60603;52.548;13.420;2023-09-08T04:19:01;12.57;;;7.30;;
72573;SDS011;60603;52.548;13.420;2023-09-08T04:21:28;13.85;;;7.50;;
72573;SDS011;60603;52.548;13.420;2023-09-08T04:23:55;13.77;;;7.57;;
72573;SDS011;60603;52.548;13.420;2023-09-08T04:26:22;16.55;;;8.02;;
72573;SDS011;60603;52.548;13.420;2023-09-08T04:28:48;17.63;;;8.50;;
72573;SDS011;60603;52.548;13.420;2023-09-08T04:31:15;11.82;;;7.97;;
72573;SDS011;60603;52.548;13.420;2023-09-08T04:33:44;13.23;;;8.18;;
72573;SDS011;60603;52.548;13.420;2023-09-08T04:36:11;14.55;;;9.13;;
72573;SDS011;60603;52.548;13.420;2023-09-08T04:38:39;16.98;;;8.60;;
72573;SDS011;60603;52.548;13.420;2023-09-08T04:41:08;12.93;;;8.90;;
72573;SDS011;60603;52.548;13.420;2023-09-08T04:43:36;15.15;;;8.85;;
72573;SDS011;60603;52.548;13.420;2023-09-08T04:46:03;15.38;;;8.27;;
72573;SDS011;60603;52.548;13.420;2023-09-08T04:48:30;13.48;;;9.52;;
72573;SDS011;60603;52.548;13.420;2023-09-08T04:50:57;15.05;;;9.48;;
72573;SDS011;60603;52.548;13.420;2023-09-08T04:53:24;15.15;;;9.20;;
72573;SDS011;60603;52.548;13.420;2023-09-08T04:55:51;13.23;;;8.73;;
72573;SDS011;60603;52.548;13.420;2023-09-08T04:58:18;15.93;;;9.30;;
72573;SDS011;60603;52.548;13.420;2023-09-08T05:00:45;13.57;;;8.80;;
72573;SDS011;60603;52.548;13.420;2023-09-08T05:03:12;14.07;;;9.20;;
72573;SDS011;60603;52.548;13.420;2023-09-08T05:05:39;14.02;;;9.32;;
72573;SDS011;60603;52.548;13.420;2023-09-08T05:08:06;17.85;;;9.07;;
72573;SDS011;60603;52.548;13.420;2023-09-08T05:10:33;14.77;;;9.15;;
72573;SDS011;60603;52.548;13.420;2023-09-08T05:13:00;20.55;;;10.07;;
72573;SDS011;60603;52.548;13.420;2023-09-08T05:15:27;14.90;;;9.85;;
72573;SDS011;60603;52.548;13.420;2023-09-08T05:17:53;15.88;;;9.55;;
72573;SDS011;60603;52.548;13.420;2023-09-08T05:20:20;13.32;;;9.88;;
72573;SDS011;60603;52.548;13.420;2023-09-08T05:22:47;15.30;;;8.93;;
72573;SDS011;60603;52.548;13.420;2023-09-08T05:25:14;11.77;;;8.43;;
72573;SDS011;60603;52.548;13.420;2023-09-08T05:27:41;15.25;;;8.75;;
72573;SDS011;60603;52.548;13.420;2023-09-08T05:30:08;14.30;;;8.10;;
72573;SDS011;60603;52.548;13.420;2023-09-08T05:32:35;14.95;;;7.63;;
72573;SDS011;60603;52.548;13.420;2023-09-08T05:35:03;12.95;;;7.80;;
72573;SDS011;60603;52.548;13.420;2023-09-08T05:37:30;16.92;;;8.52;;
72573;SDS011;60603;52.548;13.420;2023-09-08T05:39:57;15.23;;;9.57;;
72573;SDS011;60603;52.548;13.420;2023-09-08T05:42:24;15.23;;;8.35;;
72573;SDS011;60603;52.548;13.420;2023-09-08T05:44:50;15.85;;;8.82;;
72573;SDS011;60603;52.548;13.420;2023-09-08T05:47:17;13.13;;;7.97;;
72573;SDS011;60603;52.548;13.420;2023-09-08T05:49:44;13.50;;;8.10;;
72573;SDS011;60603;52.548;13.420;2023-09-08T05:52:11;13.30;;;8.15;;
72573;SDS011;60603;52.548;13.420;2023-09-08T05:54:38;10.15;;;7.20;;
72573;SDS011;60603;52.548;13.420;2023-09-08T05:57:05;12.90;;;7.50;;
72573;SDS011;60603;52.548;13.420;2023-09-08T05:59:32;14.23;;;7.65;;
72573;SDS011;60603;52.548;13.420;2023-09-08T06:01:59;12.00;;;7.55;;
72573;SDS011;60603;52.548;13.420;2023-09-08T06:04:26;12.63;;;7.75;;
72573;SDS011;60603;52.548;13.420;2023-09-08T06:06:53;12.80;;;7.90;;
72573;SDS011;60603;52.548;13.420;2023-09-08T06:09:20;12.63;;;8.57;;
72573;SDS011;60603;52.548;13.420;2023-09-08T06:11:47;14.30;;;7.22;;
72573;SDS011;60603;52.548;13.420;2023-09-08T06:14:14;13.88;;;7.90;;
72573;SDS011;60603;52.548;13.420;2023-09-08T06:16:41;12.80;;;7.03;;
72573;SDS011;60603;52.548;13.420;2023-09-08T06:19:08;10.25;;;6.88;;
72573;SDS011;60603;52.548;13.420;2023-09-08T06:21:35;10.38;;;7.38;;
72573;SDS011;60603;52.548;13.420;2023-09-08T06:24:02;12.35;;;8.23;;
72573;SDS011;60603;52.548;13.420;2023-09-08T06:26:29;11.18;;;7.35;;
72573;SDS011;60603;52.548;13.420;2023-09-08T06:28:56;12.27;;;7.45;;
72573;SDS011;60603;52.548;13.420;2023-09-08T06:31:22;11.43;;;8.00;;
72573;SDS011;60603;52.548;13.420;2023-09-08T06:33:49;11.77;;;6.72;;
72573;SDS011;60603;52.548;13.420;2023-09-08T06:36:18;11.23;;;6.95;;
72573;SDS011;60603;52.548;13.420;2023-09-08T06:38:45;11.68;;;7.47;;
72573;SDS011;60603;52.548;13.420;2023-09-08T06:41:13;14.57;;;7.82;;
72573;SDS011;60603;52.548;13.420;2023-09-08T06:43:40;11.27;;;7.82;;
72573;SDS011;60603;52.548;13.420;2023-09-08T06:46:06;12.73;;;6.88;;
72573;SDS011;60603;52.548;13.420;2023-09-08T06:48:34;11.32;;;7.15;;
72573;SDS011;60603;52.548;13.420;2023-09-08T06:51:02;11.13;;;6.63;;
72573;SDS011;60603;52.548;13.420;2023-09-08T06:53:29;13.50;;;7.22;;
72573;SDS011;60603;52.548;13.420;2023-09-08T06:55:57;11.77;;;6.47;;
72573;SDS011;60603;52.548;13.420;2023-09-08T06:58:24;11.35;;;6.53;;
72573;SDS011;60603;52.548;13.420;2023-09-08T07:00:51;9.77;;;6.60;;
72573;SDS011;60603;52.548;13.420;2023-09-08T07:03:21;14.50;;;7.60;;
72573;SDS011;60603;52.548;13.420;2023-09-08T07:05:49;12.75;;;6.78;;
72573;SDS011;60603;52.548;13.420;2023-09-08T07:08:17;12.30;;;6.47;;
72573;SDS011;60603;52.548;13.420;2023-09-08T07:10:45;11.85;;;6.68;;
72573;SDS011;60603;52.548;13.420;2023-09-08T07:13:12;14.10;;;6.65;;
72573;SDS011;60603;52.548;13.420;2023-09-08T07:15:39;11.23;;;7.47;;
72573;SDS011;60603;52.548;13.420;2023-09-08T07:18:06;11.50;;;6.75;;
72573;SDS011;60603;52.548;13.420;2023-09-08T07:20:33;10.15;;;6.38;;
72573;SDS011;60603;52.548;13.420;2023-09-08T07:23:01;14.88;;;7.45;;
72573;SDS011;60603;52.548;13.420;2023-09-08T07:25:28;10.63;;;7.28;;
72573;SDS011;60603;52.548;13.420;2023-09-08T07:27:55;12.18;;;6.45;;
72573;SDS011;60603;52.548;13.420;2023-09-08T07:30:22;10.45;;;7.18;;
72573;SDS011;60603;52.548;13.420;2023-09-08T07:32:49;10.40;;;6.45;;
72573;SDS011;60603;52.548;13.420;2023-09-08T07:35:16;13.07;;;6.97;;
72573;SDS011;60603;52.548;13.420;2023-09-08T07:37:43;11.30;;;6.30;;
72573;SDS011;60603;52.548;13.420;2023-09-08T07:40:10;12.05;;;6.05;;
72573;SDS011;60603;52.548;13.420;2023-09-08T07:42:38;10.30;;;6.50;;
72573;SDS011;60603;52.548;13.420;2023-09-08T07:45:05;13.32;;;6.78;;
72573;SDS011;60603;52.548;13.420;2023-09-08T07:47:32;9.90;;;6.72;;
72573;SDS011;60603;52.548;13.420;2023-09-08T07:50:18;11.13;;;6.50;;
72573;SDS011;60603;52.548;13.420;2023-09-08T07:52:47;10.88;;;6.38;;
72573;SDS011;60603;52.548;13.420;2023-09-08T07:55:15;10.10;;;6.38;;
72573;SDS011;60603;52.548;13.420;2023-09-08T07:57:43;9.15;;;6.40;;
72573;SDS011;60603;52.548;13.420;2023-09-08T08:00:10;11.75;;;6.70;;
72573;SDS011;60603;52.548;13.420;2023-09-08T08:02:50;11.75;;;6.57;;
72573;SDS011;60603;52.548;13.420;2023-09-08T08:05:18;11.93;;;6.97;;
72573;SDS011;60603;52.548;13.420;2023-09-08T08:07:45;11.65;;;6.57;;
72573;SDS011;60603;52.548;13.420;2023-09-08T08:10:12;10.10;;;5.93;;
72573;SDS011;60603;52.548;13.420;2023-09-08T08:12:39;9.95;;;6.03;;
72573;SDS011;60603;52.548;13.420;2023-09-08T08:15:07;10.90;;;6.20;;
72573;SDS011;60603;52.548;13.420;2023-09-08T08:17:37;12.15;;;6.30;;
72573;SDS011;60603;52.548;13.420;2023-09-08T08:20:04;11.13;;;6.22;;
72573;SDS011;60603;52.548;13.420;2023-09-08T08:22:37;9.88;;;6.10;;
72573;SDS011;60603;52.548;13.420;2023-09-08T08:25:04;9.40;;;6.78;;
72573;SDS011;60603;52.548;13.420;2023-09-08T08:27:31;12.60;;;6.82;;
72573;SDS011;60603;52.548;13.420;2023-09-08T08:29:58;12.15;;;6.75;;
72573;SDS011;60603;52.548;13.420;2023-09-08T08:32:28;9.90;;;5.90;;
72573;SDS011;60603;52.548;13.420;2023-09-08T08:34:54;15.02;;;5.95;;
72573;SDS011;60603;52.548;13.420;2023-09-08T08:37:22;9.98;;;5.68;;
72573;SDS011;60603;52.548;13.420;2023-09-08T08:39:48;9.02;;;5.35;;
72573;SDS011;60603;52.548;13.420;2023-09-08T08:42:16;9.73;;;6.35;;
72573;SDS011;60603;52.548;13.420;2023-09-08T08:44:42;9.80;;;6.25;;
72573;SDS011;60603;52.548;13.420;2023-09-08T08:47:10;11.35;;;6.28;;
72573;SDS011;60603;52.548;13.420;2023-09-08T08:49:39;12.05;;;6.90;;
72573;SDS011;60603;52.548;13.420;2023-09-08T08:52:09;11.43;;;6.70;;
72573;SDS011;60603;52.548;13.420;2023-09-08T08:54:37;9.57;;;6.50;;
72573;SDS011;60603;52.548;13.420;2023-09-08T08:57:05;12.90;;;5.85;;
72573;SDS011;60603;52.548;13.420;2023-09-08T08:59:33;9.25;;;5.78;;
72573;SDS011;60603;52.548;13.420;2023-09-08T09:02:00;10.13;;;6.75;;
72573;SDS011;60603;52.548;13.420;2023-09-08T09:04:29;9.18;;;5.95;;
72573;SDS011;60603;52.548;13.420;2023-09-08T09:06:56;12.40;;;6.75;;
72573;SDS011;60603;52.548;13.420;2023-09-08T09:09:23;11.95;;;7.82;;
72573;SDS011;60603;52.548;13.420;2023-09-08T09:11:51;12.43;;;6.05;;
72573;SDS011;60603;52.548;13.420;2023-09-08T09:14:18;11.05;;;6.10;;
72573;SDS011;60603;52.548;13.420;2023-09-08T09:16:45;14.80;;;7.95;;
72573;SDS011;60603;52.548;13.420;2023-09-08T09:19:17;11.18;;;6.18;;
72573;SDS011;60603;52.548;13.420;2023-09-08T09:21:54;13.18;;;5.32;;
72573;SDS011;60603;52.548;13.420;2023-09-08T09:24:35;9.27;;;5.10;;
72573;SDS011;60603;52.548;13.420;2023-09-08T09:27:05;8.60;;;5.80;;
72573;SDS011;60603;52.548;13.420;2023-09-08T09:29:33;14.32;;;5.40;;
72573;SDS011;60603;52.548;13.420;2023-09-08T09:32:05;10.50;;;5.85;;
72573;SDS011;60603;52.548;13.420;2023-09-08T09:34:33;8.80;;;5.70;;
72573;SDS011;60603;52.548;13.420;2023-09-08T09:37:01;13.15;;;6.65;;
72573;SDS011;60603;52.548;13.420;2023-09-08T09:39:31;8.25;;;5.00;;
72573;SDS011;60603;52.548;13.420;2023-09-08T09:41:58;9.70;;;5.10;;
72573;SDS011;60603;52.548;13.420;2023-09-08T09:44:26;8.98;;;5.25;;
72573;SDS011;60603;52.548;13.420;2023-09-08T09:46:53;8.48;;;5.30;;
72573;SDS011;60603;52.548;13.420;2023-09-08T09:49:20;8.30;;;5.70;;
72573;SDS011;60603;52.548;13.420;2023-09-08T09:51:49;12.13;;;6.93;;
72573;SDS011;60603;52.548;13.420;2023-09-08T09:54:19;9.20;;;5.30;;
72573;SDS011;60603;52.548;13.420;2023-09-08T09:56:47;9.32;;;5.25;;
72573;SDS011;60603;52.548;13.420;2023-09-08T09:59:17;7.75;;;4.50;;
72573;SDS011;60603;52.548;13.420;2023-09-08T10:01:44;6.88;;;3.90;;
72573;SDS011;60603;52.548;13.420;2023-09-08T10:04:12;9.63;;;4.57;;
72573;SDS011;60603;52.548;13.420;2023-09-08T10:06:42;10.60;;;4.43;;
72573;SDS011;60603;52.548;13.420;2023-09-08T10:09:10;8.70;;;5.25;;
72573;SDS011;60603;52.548;13.420;2023-09-08T10:11:49;10.40;;;5.10;;
72573;SDS011;60603;52.548;13.420;2023-09-08T10:14:17;10.35;;;4.47;;
72573;SDS011;60603;52.548;13.420;2023-09-08T10:16:45;7.35;;;4.50;;
72573;SDS011;60603;52.548;13.420;2023-09-08T10:19:16;7.47;;;4.55;;
72573;SDS011;60603;52.548;13.420;2023-09-08T10:21:46;8.82;;;4.78;;
72573;SDS011;60603;52.548;13.420;2023-09-08T10:26:43;8.98;;;4.38;;
72573;SDS011;60603;52.548;13.420;2023-09-08T10:29:10;8.45;;;4.72;;
72573;SDS011;60603;52.548;13.420;2023-09-08T10:31:38;8.20;;;4.78;;
72573;SDS011;60603;52.548;13.420;2023-09-08T10:34:05;9.55;;;6.32;;
72573;SDS011;60603;52.548;13.420;2023-09-08T10:36:34;9.43;;;5.43;;
72573;SDS011;60603;52.548;13.420;2023-09-08T10:45:14;13.38;;;4.88;;
72573;SDS011;60603;52.548;13.420;2023-09-08T10:50:16;10.70;;;5.40;;
72573;SDS011;60603;52.548;13.420;2023-09-08T10:52:44;8.40;;;4.47;;
72573;SDS011;60603;52.548;13.420;2023-09-08T10:55:11;9.23;;;4.30;;
72573;SDS011;60603;52.548;13.420;2023-09-08T10:57:44;11.00;;;4.75;;
72573;SDS011;60603;52.548;13.420;2023-09-08T11:00:11;7.03;;;4.25;;
72573;SDS011;60603;52.548;13.420;2023-09-08T11:02:48;8.25;;;4.90;;
72573;SDS011;60603;52.548;13.420;2023-09-08T11:05:16;11.73;;;4.88;;
72573;SDS011;60603;52.548;13.420;2023-09-08T11:07:43;8.85;;;4.45;;
72573;SDS011;60603;52.548;13.420;2023-09-08T11:10:11;8.88;;;4.18;;
72573;SDS011;60603;52.548;13.420;2023-09-08T11:12:39;20.27;;;5.82;;
72573;SDS011;60603;52.548;13.420;2023-09-08T11:15:06;7.57;;;5.15;;
72573;SDS011;60603;52.548;13.420;2023-09-08T11:17:36;8.27;;;4.85;;
72573;SDS011;60603;52.548;13.420;2023-09-08T11:20:06;9.50;;;4.53;;
72573;SDS011;60603;52.548;13.420;2023-09-08T11:22:36;12.95;;;4.90;;
72573;SDS011;60603;52.548;13.420;2023-09-08T11:25:04;7.07;;;4.30;;
72573;SDS011;60603;52.548;13.420;2023-09-08T11:27:33;7.32;;;4.93;;
72573;SDS011;60603;52.548;13.420;2023-09-08T11:30:00;8.95;;;4.55;;
72573;SDS011;60603;52.548;13.420;2023-09-08T11:32:34;6.28;;;4.35;;
72573;SDS011;60603;52.548;13.420;2023-09-08T11:35:04;8.48;;;4.40;;
72573;SDS011;60603;52.548;13.420;2023-09-08T11:37:37;10.40;;;4.40;;
72573;SDS011;60603;52.548;13.420;2023-09-08T11:40:05;7.45;;;4.35;;
72573;SDS011;60603;52.548;13.420;2023-09-08T11:42:37;7.57;;;4.00;;
72573;SDS011;60603;52.548;13.420;2023-09-08T11:45:11;7.53;;;4.18;;
72573;SDS011;60603;52.548;13.420;2023-09-08T11:47:47;7.30;;;4.00;;
72573;SDS011;60603;52.548;13.420;2023-09-08T11:50:16;8.77;;;4.43;;
72573;SDS011;60603;52.548;13.420;2023-09-08T11:52:45;7.60;;;4.60;;
72573;SDS011;60603;52.548;13.420;2023-09-08T11:55:13;9.10;;;4.40;;
72573;SDS011;60603;52.548;13.420;2023-09-08T11:57:41;5.75;;;3.88;;
72573;SDS011;60603;52.548;13.420;2023-09-08T12:00:08;7.65;;;4.13;;
72573;SDS011;60603;52.548;13.420;2023-09-08T12:05:04;10.27;;;4.05;;
72573;SDS011;60603;52.548;13.420;2023-09-08T12:07:31;6.95;;;4.20;;
72573;SDS011;60603;52.548;13.420;2023-09-08T12:09:58;8.02;;;4.03;;
72573;SDS011;60603;52.548;13.420;2023-09-08T12:12:26;6.93;;;4.00;;
72573;SDS011;60603;52.548;13.420;2023-09-08T12:14:53;6.82;;;4.07;;
72573;SDS011;60603;52.548;13.420;2023-09-08T12:17:20;7.10;;;4.28;;
72573;SDS011;60603;52.548;13.420;2023-09-08T12:19:51;6.80;;;4.00;;
72573;SDS011;60603;52.548;13.420;2023-09-08T12:22:18;7.03;;;4.32;;
72573;SDS011;60603;52.548;13.420;2023-09-08T12:27:23;10.18;;;5.38;;
72573;SDS011;60603;52.548;13.420;2023-09-08T12:32:21;6.65;;;4.68;;
72573;SDS011;60603;52.548;13.420;2023-09-08T12:34:49;5.70;;;3.60;;
72573;SDS011;60603;52.548;13.420;2023-09-08T12:37:23;6.30;;;4.35;;
72573;SDS011;60603;52.548;13.420;2023-09-08T12:39:51;7.30;;;4.15;;
72573;SDS011;60603;52.548;13.420;2023-09-08T12:42:18;8.90;;;3.60;;
72573;SDS011;60603;52.548;13.420;2023-09-08T12:44:46;6.53;;;3.65;;
72573;SDS011;60603;52.548;13.420;2023-09-08T12:47:14;9.95;;;4.30;;
72573;SDS011;60603;52.548;13.420;2023-09-08T12:49:41;7.10;;;4.15;;
72573;SDS011;60603;52.548;13.420;2023-09-08T12:52:08;6.32;;;4.50;;
72573;SDS011;60603;52.548;13.420;2023-09-08T12:54:35;7.35;;;3.80;;
72573;SDS011;60603;52.548;13.420;2023-09-08T12:57:03;8.38;;;3.60;;
72573;SDS011;60603;52.548;13.420;2023-09-08T12:59:32;6.05;;;3.70;;
72573;SDS011;60603;52.548;13.420;2023-09-08T13:01:59;6.93;;;4.28;;
72573;SDS011;60603;52.548;13.420;2023-09-08T13:04:26;6.57;;;4.00;;
72573;SDS011;60603;52.548;13.420;2023-09-08T13:06:53;8.95;;;4.10;;
72573;SDS011;60603;52.548;13.420;2023-09-08T13:09:19;7.95;;;3.97;;
72573;SDS011;60603;52.548;13.420;2023-09-08T13:11:48;6.43;;;4.13;;
72573;SDS011;60603;52.548;13.420;2023-09-08T13:14:14;6.47;;;3.80;;
72573;SDS011;60603;52.548;13.420;2023-09-08T13:16:41;8.02;;;4.22;;
72573;SDS011;60603;52.548;13.420;2023-09-08T13:19:08;6.85;;;4.47;;
72573;SDS011;60603;52.548;13.420;2023-09-08T13:21:35;6.57;;;4.07;;
72573;SDS011;60603;52.548;13.420;2023-09-08T13:24:03;6.88;;;3.97;;
72573;SDS011;60603;52.548;13.420;2023-09-08T13:26:32;9.00;;;4.45;;
72573;SDS011;60603;52.548;13.420;2023-09-08T13:28:59;6.88;;;4.00;;
72573;SDS011;60603;52.548;13.420;2023-09-08T13:31:26;8.38;;;4.32;;
72573;SDS011;60603;52.548;13.420;2023-09-08T13:33:53;7.88;;;4.78;;
72573;SDS011;60603;52.548;13.420;2023-09-08T13:36:20;7.20;;;3.97;;
72573;SDS011;60603;52.548;13.420;2023-09-08T13:38:47;7.53;;;4.45;;
72573;SDS011;60603;52.548;13.420;2023-09-08T13:41:14;7.18;;;4.03;;
72573;SDS011;60603;52.548;13.420;2023-09-08T13:43:40;10.38;;;5.00;;
72573;SDS011;60603;52.548;13.420;2023-09-08T13:46:12;7.25;;;4.35;;
72573;SDS011;60603;52.548;13.420;2023-09-08T13:48:39;9.75;;;4.70;;
72573;SDS011;60603;52.548;13.420;2023-09-08T13:51:08;7.97;;;4.07;;
72573;SDS011;60603;52.548;13.420;2023-09-08T13:53:36;8.13;;;3.95;;
72573;SDS011;60603;52.548;13.420;2023-09-08T13:56:11;8.25;;;4.20;;
72573;SDS011;60603;52.548;13.420;2023-09-08T14:01:22;6.72;;;4.28;;
72573;SDS011;60603;52.548;13.420;2023-09-08T14:03:52;8.48;;;4.15;;
72573;SDS011;60603;52.548;13.420;2023-09-08T14:06:22;7.85;;;4.07;;
72573;SDS011;60603;52.548;13.420;2023-09-08T14:08:56;7.47;;;4.00;;
72573;SDS011;60603;52.548;13.420;2023-09-08T14:11:26;6.25;;;3.70;;
72573;SDS011;60603;52.548;13.420;2023-09-08T14:13:58;6.53;;;4.47;;
72573;SDS011;60603;52.548;13.420;2023-09-08T14:16:25;6.22;;;4.32;;
72573;SDS011;60603;52.548;13.420;2023-09-08T14:18:51;7.38;;;4.55;;
72573;SDS011;60603;52.548;13.420;2023-09-08T14:21:18;6.30;;;4.18;;
72573;SDS011;60603;52.548;13.420;2023-09-08T14:23:45;10.88;;;4.82;;
72573;SDS011;60603;52.548;13.420;2023-09-08T14:26:13;7.53;;;4.55;;
72573;SDS011;60603;52.548;13.420;2023-09-08T14:28:39;7.70;;;3.80;;
72573;SDS011;60603;52.548;13.420;2023-09-08T14:31:06;6.25;;;3.75;;
72573;SDS011;60603;52.548;13.420;2023-09-08T14:33:33;8.13;;;3.95;;
72573;SDS011;60603;52.548;13.420;2023-09-08T14:36:01;7.43;;;3.60;;
72573;SDS011;60603;52.548;13.420;2023-09-08T14:38:27;8.57;;;4.85;;
72573;SDS011;60603;52.548;13.420;2023-09-08T14:40:55;6.68;;;4.50;;
72573;SDS011;60603;52.548;13.420;2023-09-08T14:43:24;8.75;;;4.10;;
72573;SDS011;60603;52.548;13.420;2023-09-08T14:45:51;7.07;;;3.83;;
72573;SDS011;60603;52.548;13.420;2023-09-08T14:48:19;7.10;;;4.25;;
72573;SDS011;60603;52.548;13.420;2023-09-08T14:50:46;6.25;;;4.18;;
72573;SDS011;60603;52.548;13.420;2023-09-08T14:53:13;5.88;;;3.38;;
72573;SDS011;60603;52.548;13.420;2023-09-08T14:55:40;6.88;;;4.30;;
72573;SDS011;60603;52.548;13.420;2023-09-08T14:58:10;7.15;;;3.88;;